sensor_id;sensor_type;location;lat;lon;timestamp;P1;durP1;ratioP1;P2;durP2;ratioP2
72674;SDS011;60752;53.962;9.614;2022-09-09T00:01:22;22.07;;;10.70;;
72674;SDS011;60752;53.962;9.614;2022-09-09T00:06:30;28.60;;;10.65;;
72674;SDS011;60752;53.962;9.614;2022-09-09T00:11:35;32.00;;;11.35;;
72674;SDS011;60752;53.962;9.614;2022-09-09T00:16:40;34.17;;;11.47;;
72674;SDS011;60752;53.962;9.614;2022-09-09T00:21:47;22.17;;;12.67;;
72674;SDS011;60752;53.962;9.614;2022-09-09T00:26:58;23.17;;;12.00;;
72674;SDS011;60752;53.962;9.614;2022-09-09T00:32:07;31.80;;;12.95;;
72674;SDS011;60752;53.962;9.614;2022-09-09T00:37:14;22.37;;;11.93;;
72674;SDS011;60752;53.962;9.614;2022-09-09T00:42:15;21.55;;;11.50;;
72674;SDS011;60752;53.962;9.614;2022-09-09T00:47:20;32.13;;;11.82;;
72674;SDS011;60752;53.962;9.614;2022-09-09T00:52:36;28.03;;;12.33;;
72674;SDS011;60752;53.962;9.614;2022-09-09T00:57:43;31.23;;;11.25;;
72674;SDS011;60752;53.962;9.614;2022-09-09T01:02:46;30.50;;;12.13;;
72674;SDS011;60752;53.962;9.614;2022-09-09T01:07:54;32.05;;;12.13;;
72674;SDS011;60752;53.962;9.614;2022-09-09T01:12:55;19.85;;;10.52;;
72674;SDS011;60752;53.962;9.614;2022-09-09T01:18:00;21.63;;;11.27;;
72674;SDS011;60752;53.962;9.614;2022-09-09T01:23:09;30.77;;;10.90;;
72674;SDS011;60752;53.962;9.614;2022-09-09T01:28:30;24.75;;;10.70;;
72674;SDS011;60752;53.962;9.614;2022-09-09T01:33:32;30.25;;;11.05;;
72674;SDS011;60752;53.962;9.614;2022-09-09T01:38:33;51.40;;;12.63;;
72674;SDS011;60752;53.962;9.614;2022-09-09T01:43:36;31.87;;;11.33;;
72674;SDS011;60752;53.962;9.614;2022-09-09T01:48:37;30.37;;;11.37;;
72674;SDS011;60752;53.962;9.614;2022-09-09T01:53:38;30.65;;;12.15;;
72674;SDS011;60752;53.962;9.614;2022-09-09T01:58:46;26.92;;;10.98;;
72674;SDS011;60752;53.962;9.614;2022-09-09T02:03:56;42.83;;;11.90;;
72674;SDS011;60752;53.962;9.614;2022-09-09T02:08:58;61.42;;;13.63;;
72674;SDS011;60752;53.962;9.614;2022-09-09T02:14:02;26.73;;;12.43;;
72674;SDS011;60752;53.962;9.614;2022-09-09T02:19:08;24.90;;;11.77;;
72674;SDS011;60752;53.962;9.614;2022-09-09T02:24:11;32.35;;;13.13;;
72674;SDS011;60752;53.962;9.614;2022-09-09T02:29:17;28.88;;;13.55;;
72674;SDS011;60752;53.962;9.614;2022-09-09T02:34:21;30.53;;;13.07;;
72674;SDS011;60752;53.962;9.614;2022-09-09T02:39:23;24.67;;;12.17;;
72674;SDS011;60752;53.962;9.614;2022-09-09T02:44:25;24.63;;;12.47;;
72674;SDS011;60752;53.962;9.614;2022-09-09T02:49:27;29.23;;;11.07;;
72674;SDS011;60752;53.962;9.614;2022-09-09T02:54:34;25.33;;;12.35;;
72674;SDS011;60752;53.962;9.614;2022-09-09T02:59:36;27.83;;;11.30;;
72674;SDS011;60752;53.962;9.614;2022-09-09T03:04:37;24.73;;;12.20;;
72674;SDS011;60752;53.962;9.614;2022-09-09T03:09:38;24.10;;;11.73;;
72674;SDS011;60752;53.962;9.614;2022-09-09T03:14:43;23.77;;;12.37;;
72674;SDS011;60752;53.962;9.614;2022-09-09T03:19:43;45.22;;;13.05;;
72674;SDS011;60752;53.962;9.614;2022-09-09T03:24:44;25.43;;;11.87;;
72674;SDS011;60752;53.962;9.614;2022-09-09T03:29:45;33.57;;;12.57;;
72674;SDS011;60752;53.962;9.614;2022-09-09T03:34:46;37.65;;;12.63;;
72674;SDS011;60752;53.962;9.614;2022-09-09T03:39:46;37.07;;;14.07;;
72674;SDS011;60752;53.962;9.614;2022-09-09T03:44:48;34.70;;;13.03;;
72674;SDS011;60752;53.962;9.614;2022-09-09T03:49:49;50.63;;;13.83;;
72674;SDS011;60752;53.962;9.614;2022-09-09T03:54:49;32.97;;;11.27;;
72674;SDS011;60752;53.962;9.614;2022-09-09T03:59:51;41.33;;;13.07;;
72674;SDS011;60752;53.962;9.614;2022-09-09T04:04:51;42.38;;;12.95;;
72674;SDS011;60752;53.962;9.614;2022-09-09T04:09:51;26.80;;;11.60;;
72674;SDS011;60752;53.962;9.614;2022-09-09T04:14:53;26.23;;;12.60;;
72674;SDS011;60752;53.962;9.614;2022-09-09T04:19:54;29.58;;;12.25;;
72674;SDS011;60752;53.962;9.614;2022-09-09T04:24:54;34.47;;;13.00;;
72674;SDS011;60752;53.962;9.614;2022-09-09T04:29:56;26.57;;;11.67;;
72674;SDS011;60752;53.962;9.614;2022-09-09T04:34:56;27.73;;;12.30;;
72674;SDS011;60752;53.962;9.614;2022-09-09T04:39:56;31.47;;;13.10;;
72674;SDS011;60752;53.962;9.614;2022-09-09T04:44:58;45.90;;;13.27;;
72674;SDS011;60752;53.962;9.614;2022-09-09T04:49:59;25.47;;;13.30;;
72674;SDS011;60752;53.962;9.614;2022-09-09T04:54:59;27.87;;;12.57;;
72674;SDS011;60752;53.962;9.614;2022-09-09T05:00:01;25.93;;;12.03;;
72674;SDS011;60752;53.962;9.614;2022-09-09T05:05:02;27.38;;;12.82;;
72674;SDS011;60752;53.962;9.614;2022-09-09T05:10:03;28.13;;;12.68;;
72674;SDS011;60752;53.962;9.614;2022-09-09T05:15:06;27.90;;;12.07;;
72674;SDS011;60752;53.962;9.614;2022-09-09T05:20:08;29.42;;;13.18;;
72674;SDS011;60752;53.962;9.614;2022-09-09T05:25:08;27.52;;;12.50;;
72674;SDS011;60752;53.962;9.614;2022-09-09T05:30:10;27.53;;;12.77;;
72674;SDS011;60752;53.962;9.614;2022-09-09T05:35:11;25.30;;;11.83;;
72674;SDS011;60752;53.962;9.614;2022-09-09T05:40:12;24.90;;;12.07;;
72674;SDS011;60752;53.962;9.614;2022-09-09T05:45:14;24.65;;;10.95;;
72674;SDS011;60752;53.962;9.614;2022-09-09T05:50:14;24.90;;;11.07;;
72674;SDS011;60752;53.962;9.614;2022-09-09T05:55:15;21.70;;;11.23;;
72674;SDS011;60752;53.962;9.614;2022-09-09T06:00:16;24.27;;;11.23;;
72674;SDS011;60752;53.962;9.614;2022-09-09T06:05:17;23.52;;;11.57;;
72674;SDS011;60752;53.962;9.614;2022-09-09T06:10:17;22.90;;;12.30;;
72674;SDS011;60752;53.962;9.614;2022-09-09T06:15:19;22.70;;;10.43;;
72674;SDS011;60752;53.962;9.614;2022-09-09T06:20:20;20.95;;;10.38;;
72674;SDS011;60752;53.962;9.614;2022-09-09T06:25:20;24.23;;;11.37;;
72674;SDS011;60752;53.962;9.614;2022-09-09T06:30:22;20.30;;;10.10;;
72674;SDS011;60752;53.962;9.614;2022-09-09T06:35:22;20.95;;;10.55;;
72674;SDS011;60752;53.962;9.614;2022-09-09T06:40:23;19.33;;;10.77;;
72674;SDS011;60752;53.962;9.614;2022-09-09T06:45:24;18.90;;;10.00;;
72674;SDS011;60752;53.962;9.614;2022-09-09T06:50:25;19.03;;;9.10;;
72674;SDS011;60752;53.962;9.614;2022-09-09T06:55:25;16.43;;;9.30;;
72674;SDS011;60752;53.962;9.614;2022-09-09T07:00:27;19.30;;;8.87;;
72674;SDS011;60752;53.962;9.614;2022-09-09T07:05:27;17.05;;;9.13;;
72674;SDS011;60752;53.962;9.614;2022-09-09T07:10:28;17.17;;;8.53;;
72674;SDS011;60752;53.962;9.614;2022-09-09T07:15:29;15.17;;;7.80;;
72674;SDS011;60752;53.962;9.614;2022-09-09T07:20:30;15.75;;;8.20;;
72674;SDS011;60752;53.962;9.614;2022-09-09T07:25:30;16.00;;;7.30;;
72674;SDS011;60752;53.962;9.614;2022-09-09T07:30:32;19.73;;;8.20;;
72674;SDS011;60752;53.962;9.614;2022-09-09T07:35:35;13.73;;;6.55;;
72674;SDS011;60752;53.962;9.614;2022-09-09T07:40:35;13.87;;;7.20;;
72674;SDS011;60752;53.962;9.614;2022-09-09T07:45:37;11.47;;;6.63;;
72674;SDS011;60752;53.962;9.614;2022-09-09T07:50:37;14.90;;;7.35;;
72674;SDS011;60752;53.962;9.614;2022-09-09T07:55:38;12.20;;;6.70;;
72674;SDS011;60752;53.962;9.614;2022-09-09T08:00:40;12.60;;;5.80;;
72674;SDS011;60752;53.962;9.614;2022-09-09T08:05:41;13.85;;;5.78;;
72674;SDS011;60752;53.962;9.614;2022-09-09T08:10:41;12.30;;;6.10;;
72674;SDS011;60752;53.962;9.614;2022-09-09T08:15:43;10.90;;;5.30;;
72674;SDS011;60752;53.962;9.614;2022-09-09T08:20:43;10.60;;;5.65;;
72674;SDS011;60752;53.962;9.614;2022-09-09T08:25:44;12.00;;;5.50;;
72674;SDS011;60752;53.962;9.614;2022-09-09T08:30:45;12.57;;;5.70;;
72674;SDS011;60752;53.962;9.614;2022-09-09T08:35:49;10.95;;;5.30;;
72674;SDS011;60752;53.962;9.614;2022-09-09T08:40:52;9.03;;;5.33;;
72674;SDS011;60752;53.962;9.614;2022-09-09T08:46:02;11.65;;;6.45;;
72674;SDS011;60752;53.962;9.614;2022-09-09T08:51:09;10.15;;;6.53;;
72674;SDS011;60752;53.962;9.614;2022-09-09T08:56:11;10.60;;;6.80;;
72674;SDS011;60752;53.962;9.614;2022-09-09T09:06:52;9.00;;;5.90;;
72674;SDS011;60752;53.962;9.614;2022-09-09T09:12:00;11.67;;;5.63;;
72674;SDS011;60752;53.962;9.614;2022-09-09T09:17:03;9.48;;;5.78;;
72674;SDS011;60752;53.962;9.614;2022-09-09T09:22:06;9.60;;;5.82;;
72674;SDS011;60752;53.962;9.614;2022-09-09T09:27:15;13.00;;;6.10;;
72674;SDS011;60752;53.962;9.614;2022-09-09T09:32:18;12.00;;;8.27;;
72674;SDS011;60752;53.962;9.614;2022-09-09T09:37:21;9.63;;;6.32;;
72674;SDS011;60752;53.962;9.614;2022-09-09T09:42:27;9.75;;;5.75;;
72674;SDS011;60752;53.962;9.614;2022-09-09T09:47:29;9.83;;;5.00;;
72674;SDS011;60752;53.962;9.614;2022-09-09T09:52:30;8.38;;;4.57;;
72674;SDS011;60752;53.962;9.614;2022-09-09T09:57:31;7.63;;;4.73;;
72674;SDS011;60752;53.962;9.614;2022-09-09T10:02:38;6.53;;;3.78;;
72674;SDS011;60752;53.962;9.614;2022-09-09T10:07:40;6.82;;;3.70;;
72674;SDS011;60752;53.962;9.614;2022-09-09T10:12:42;5.40;;;3.10;;
72674;SDS011;60752;53.962;9.614;2022-09-09T10:17:56;8.07;;;3.15;;
72674;SDS011;60752;53.962;9.614;2022-09-09T10:23:13;11.27;;;4.80;;
72674;SDS011;60752;53.962;9.614;2022-09-09T10:28:25;7.78;;;3.50;;
72674;SDS011;60752;53.962;9.614;2022-09-09T10:33:47;6.85;;;3.17;;
72674;SDS011;60752;53.962;9.614;2022-09-09T10:38:52;5.47;;;2.90;;
72674;SDS011;60752;53.962;9.614;2022-09-09T10:49:33;4.75;;;2.47;;
72674;SDS011;60752;53.962;9.614;2022-09-09T10:54:53;5.97;;;2.28;;
72674;SDS011;60752;53.962;9.614;2022-09-09T11:00:02;4.60;;;2.00;;
72674;SDS011;60752;53.962;9.614;2022-09-09T11:05:08;6.25;;;2.28;;
72674;SDS011;60752;53.962;9.614;2022-09-09T11:10:17;6.78;;;2.22;;
72674;SDS011;60752;53.962;9.614;2022-09-09T11:15:23;6.77;;;2.30;;
72674;SDS011;60752;53.962;9.614;2022-09-09T11:20:32;5.47;;;2.17;;
72674;SDS011;60752;53.962;9.614;2022-09-09T11:25:34;10.80;;;2.20;;
72674;SDS011;60752;53.962;9.614;2022-09-09T11:30:38;122.47;;;75.17;;
72674;SDS011;60752;53.962;9.614;2022-09-09T11:36:08;6.30;;;3.53;;
72674;SDS011;60752;53.962;9.614;2022-09-09T11:41:21;6.05;;;2.47;;
72674;SDS011;60752;53.962;9.614;2022-09-09T11:46:22;6.53;;;2.47;;
72674;SDS011;60752;53.962;9.614;2022-09-09T11:51:34;4.28;;;1.60;;
72674;SDS011;60752;53.962;9.614;2022-09-09T11:56:42;5.60;;;2.33;;
72674;SDS011;60752;53.962;9.614;2022-09-09T12:01:43;4.40;;;1.80;;
72674;SDS011;60752;53.962;9.614;2022-09-09T12:06:48;4.25;;;1.30;;
72674;SDS011;60752;53.962;9.614;2022-09-09T12:11:51;3.60;;;1.20;;
72674;SDS011;60752;53.962;9.614;2022-09-09T12:16:52;4.47;;;1.20;;
72674;SDS011;60752;53.962;9.614;2022-09-09T12:21:57;7.03;;;1.90;;
72674;SDS011;60752;53.962;9.614;2022-09-09T12:27:03;3.47;;;1.50;;
72674;SDS011;60752;53.962;9.614;2022-09-09T12:32:11;4.83;;;1.30;;
72674;SDS011;60752;53.962;9.614;2022-09-09T12:37:19;3.17;;;1.30;;
72674;SDS011;60752;53.962;9.614;2022-09-09T12:42:27;3.75;;;1.10;;
72674;SDS011;60752;53.962;9.614;2022-09-09T12:47:34;3.40;;;1.00;;
72674;SDS011;60752;53.962;9.614;2022-09-09T12:52:39;4.40;;;1.27;;
72674;SDS011;60752;53.962;9.614;2022-09-09T12:57:40;43.75;;;25.23;;
72674;SDS011;60752;53.962;9.614;2022-09-09T13:02:47;13.17;;;6.70;;
72674;SDS011;60752;53.962;9.614;2022-09-09T13:07:51;4.07;;;1.70;;
72674;SDS011;60752;53.962;9.614;2022-09-09T13:12:52;4.73;;;1.80;;
72674;SDS011;60752;53.962;9.614;2022-09-09T13:17:53;10.18;;;2.30;;
72674;SDS011;60752;53.962;9.614;2022-09-09T13:22:56;4.83;;;1.73;;
72674;SDS011;60752;53.962;9.614;2022-09-09T13:27:58;7.65;;;2.47;;
72674;SDS011;60752;53.962;9.614;2022-09-09T13:33:03;7.32;;;2.00;;
72674;SDS011;60752;53.962;9.614;2022-09-09T13:38:08;4.80;;;1.73;;
72674;SDS011;60752;53.962;9.614;2022-09-09T13:43:21;6.20;;;2.10;;
72674;SDS011;60752;53.962;9.614;2022-09-09T13:48:23;5.00;;;1.65;;
72674;SDS011;60752;53.962;9.614;2022-09-09T13:53:25;5.73;;;1.60;;
72674;SDS011;60752;53.962;9.614;2022-09-09T13:58:26;4.13;;;1.50;;
72674;SDS011;60752;53.962;9.614;2022-09-09T14:03:26;3.80;;;1.30;;
72674;SDS011;60752;53.962;9.614;2022-09-09T14:08:28;5.73;;;1.70;;
72674;SDS011;60752;53.962;9.614;2022-09-09T14:13:29;5.55;;;1.70;;
72674;SDS011;60752;53.962;9.614;2022-09-09T14:18:29;4.27;;;1.43;;
72674;SDS011;60752;53.962;9.614;2022-09-09T14:23:31;4.80;;;1.53;;
72674;SDS011;60752;53.962;9.614;2022-09-09T14:28:32;5.65;;;1.50;;
72674;SDS011;60752;53.962;9.614;2022-09-09T14:33:33;7.85;;;1.40;;
72674;SDS011;60752;53.962;9.614;2022-09-09T14:38:36;2.77;;;1.00;;
72674;SDS011;60752;53.962;9.614;2022-09-09T14:43:38;3.63;;;1.05;;
72674;SDS011;60752;53.962;9.614;2022-09-09T14:48:38;3.33;;;1.10;;
72674;SDS011;60752;53.962;9.614;2022-09-09T14:53:41;5.73;;;1.17;;
72674;SDS011;60752;53.962;9.614;2022-09-09T14:58:42;4.53;;;1.40;;
72674;SDS011;60752;53.962;9.614;2022-09-09T15:03:43;3.87;;;1.27;;
72674;SDS011;60752;53.962;9.614;2022-09-09T15:08:51;3.00;;;1.00;;
72674;SDS011;60752;53.962;9.614;2022-09-09T15:13:53;3.30;;;1.00;;
72674;SDS011;60752;53.962;9.614;2022-09-09T15:18:54;35.00;;;21.67;;
72674;SDS011;60752;53.962;9.614;2022-09-09T15:23:57;4.50;;;2.10;;
72674;SDS011;60752;53.962;9.614;2022-09-09T15:28:58;4.15;;;1.65;;
72674;SDS011;60752;53.962;9.614;2022-09-09T15:33:59;4.70;;;1.50;;
72674;SDS011;60752;53.962;9.614;2022-09-09T15:39:02;4.32;;;1.35;;
72674;SDS011;60752;53.962;9.614;2022-09-09T15:44:04;3.33;;;0.90;;
72674;SDS011;60752;53.962;9.614;2022-09-09T15:49:05;3.30;;;1.15;;
72674;SDS011;60752;53.962;9.614;2022-09-09T15:54:08;4.83;;;1.20;;
72674;SDS011;60752;53.962;9.614;2022-09-09T15:59:10;3.30;;;1.30;;
72674;SDS011;60752;53.962;9.614;2022-09-09T16:04:10;4.97;;;1.27;;
72674;SDS011;60752;53.962;9.614;2022-09-09T16:09:12;5.17;;;1.57;;
72674;SDS011;60752;53.962;9.614;2022-09-09T16:14:13;4.75;;;2.08;;
72674;SDS011;60752;53.962;9.614;2022-09-09T16:19:14;4.45;;;1.80;;
72674;SDS011;60752;53.962;9.614;2022-09-09T16:24:16;4.70;;;1.80;;
72674;SDS011;60752;53.962;9.614;2022-09-09T16:29:18;3.97;;;1.60;;
72674;SDS011;60752;53.962;9.614;2022-09-09T16:34:19;4.50;;;1.45;;
72674;SDS011;60752;53.962;9.614;2022-09-09T16:39:21;4.10;;;1.40;;
72674;SDS011;60752;53.962;9.614;2022-09-09T16:44:22;5.43;;;1.75;;
72674;SDS011;60752;53.962;9.614;2022-09-09T16:49:22;8.20;;;2.30;;
72674;SDS011;60752;53.962;9.614;2022-09-09T16:54:24;5.27;;;1.80;;
72674;SDS011;60752;53.962;9.614;2022-09-09T16:59:24;5.22;;;1.65;;
72674;SDS011;60752;53.962;9.614;2022-09-09T17:04:26;7.70;;;2.40;;
72674;SDS011;60752;53.962;9.614;2022-09-09T17:09:28;7.87;;;5.23;;
72674;SDS011;60752;53.962;9.614;2022-09-09T17:14:29;6.15;;;3.33;;
72674;SDS011;60752;53.962;9.614;2022-09-09T17:19:32;12.60;;;7.50;;
72674;SDS011;60752;53.962;9.614;2022-09-09T17:24:34;10.83;;;6.67;;
72674;SDS011;60752;53.962;9.614;2022-09-09T17:29:35;7.10;;;3.28;;
72674;SDS011;60752;53.962;9.614;2022-09-09T17:34:35;6.10;;;2.83;;
72674;SDS011;60752;53.962;9.614;2022-09-09T17:39:37;7.55;;;3.45;;
72674;SDS011;60752;53.962;9.614;2022-09-09T17:44:38;10.00;;;3.60;;
72674;SDS011;60752;53.962;9.614;2022-09-09T17:49:38;7.80;;;3.67;;
72674;SDS011;60752;53.962;9.614;2022-09-09T17:54:40;6.87;;;3.20;;
72674;SDS011;60752;53.962;9.614;2022-09-09T17:59:40;7.77;;;3.20;;
72674;SDS011;60752;53.962;9.614;2022-09-09T18:04:41;7.87;;;3.43;;
72674;SDS011;60752;53.962;9.614;2022-09-09T18:09:43;6.83;;;3.17;;
72674;SDS011;60752;53.962;9.614;2022-09-09T18:14:43;7.35;;;3.20;;
72674;SDS011;60752;53.962;9.614;2022-09-09T18:19:43;6.27;;;3.20;;
72674;SDS011;60752;53.962;9.614;2022-09-09T18:24:45;6.00;;;3.20;;
72674;SDS011;60752;53.962;9.614;2022-09-09T18:29:46;8.00;;;2.88;;
72674;SDS011;60752;53.962;9.614;2022-09-09T18:34:48;5.00;;;2.70;;
72674;SDS011;60752;53.962;9.614;2022-09-09T18:39:50;6.28;;;2.55;;
72674;SDS011;60752;53.962;9.614;2022-09-09T18:44:50;4.67;;;2.40;;
72674;SDS011;60752;53.962;9.614;2022-09-09T18:49:50;6.80;;;2.47;;
72674;SDS011;60752;53.962;9.614;2022-09-09T18:54:52;6.80;;;2.33;;
72674;SDS011;60752;53.962;9.614;2022-09-09T18:59:53;4.70;;;2.33;;
72674;SDS011;60752;53.962;9.614;2022-09-09T19:04:53;6.77;;;2.50;;
72674;SDS011;60752;53.962;9.614;2022-09-09T19:09:55;5.53;;;2.67;;
72674;SDS011;60752;53.962;9.614;2022-09-09T19:14:55;5.05;;;2.55;;
72674;SDS011;60752;53.962;9.614;2022-09-09T19:19:56;8.80;;;2.83;;
72674;SDS011;60752;53.962;9.614;2022-09-09T19:24:58;8.23;;;2.80;;
72674;SDS011;60752;53.962;9.614;2022-09-09T19:29:58;4.63;;;2.75;;
72674;SDS011;60752;53.962;9.614;2022-09-09T19:34:58;6.40;;;2.97;;
72674;SDS011;60752;53.962;9.614;2022-09-09T19:40:00;5.27;;;2.73;;
72674;SDS011;60752;53.962;9.614;2022-09-09T19:45:01;5.65;;;2.58;;
72674;SDS011;60752;53.962;9.614;2022-09-09T19:50:02;4.90;;;2.70;;
72674;SDS011;60752;53.962;9.614;2022-09-09T19:55:04;6.80;;;3.20;;
72674;SDS011;60752;53.962;9.614;2022-09-09T20:00:06;6.43;;;3.75;;
72674;SDS011;60752;53.962;9.614;2022-09-09T20:05:08;5.68;;;3.15;;
72674;SDS011;60752;53.962;9.614;2022-09-09T20:10:10;7.43;;;3.00;;
72674;SDS011;60752;53.962;9.614;2022-09-09T20:15:10;7.35;;;2.90;;
72674;SDS011;60752;53.962;9.614;2022-09-09T20:20:10;5.63;;;2.87;;
72674;SDS011;60752;53.962;9.614;2022-09-09T20:25:12;5.57;;;2.80;;
72674;SDS011;60752;53.962;9.614;2022-09-09T20:30:13;6.90;;;2.97;;
72674;SDS011;60752;53.962;9.614;2022-09-09T20:35:13;5.50;;;2.73;;
72674;SDS011;60752;53.962;9.614;2022-09-09T20:40:15;6.20;;;2.40;;
72674;SDS011;60752;53.962;9.614;2022-09-09T20:45:15;5.95;;;2.78;;
72674;SDS011;60752;53.962;9.614;2022-09-09T20:50:16;6.60;;;2.83;;
72674;SDS011;60752;53.962;9.614;2022-09-09T20:55:17;5.70;;;2.43;;
72674;SDS011;60752;53.962;9.614;2022-09-09T21:00:18;6.30;;;2.63;;
72674;SDS011;60752;53.962;9.614;2022-09-09T21:05:18;4.87;;;2.77;;
72674;SDS011;60752;53.962;9.614;2022-09-09T21:10:20;8.33;;;3.53;;
72674;SDS011;60752;53.962;9.614;2022-09-09T21:15:20;5.35;;;3.30;;
72674;SDS011;60752;53.962;9.614;2022-09-09T21:20:21;5.40;;;3.20;;
72674;SDS011;60752;53.962;9.614;2022-09-09T21:25:22;5.37;;;2.60;;
72674;SDS011;60752;53.962;9.614;2022-09-09T21:30:23;7.25;;;3.05;;
72674;SDS011;60752;53.962;9.614;2022-09-09T21:35:23;7.47;;;2.70;;
72674;SDS011;60752;53.962;9.614;2022-09-09T21:40:25;7.40;;;2.63;;
72674;SDS011;60752;53.962;9.614;2022-09-09T21:45:26;6.72;;;2.85;;
72674;SDS011;60752;53.962;9.614;2022-09-09T21:50:26;6.33;;;2.97;;
72674;SDS011;60752;53.962;9.614;2022-09-09T21:55:31;5.90;;;3.20;;
72674;SDS011;60752;53.962;9.614;2022-09-09T22:00:32;5.80;;;3.00;;
72674;SDS011;60752;53.962;9.614;2022-09-09T22:05:32;5.77;;;2.67;;
72674;SDS011;60752;53.962;9.614;2022-09-09T22:10:40;5.80;;;3.00;;
72674;SDS011;60752;53.962;9.614;2022-09-09T22:15:43;6.87;;;3.37;;
72674;SDS011;60752;53.962;9.614;2022-09-09T22:20:44;6.22;;;2.83;;
72674;SDS011;60752;53.962;9.614;2022-09-09T22:25:47;7.60;;;3.33;;
72674;SDS011;60752;53.962;9.614;2022-09-09T22:30:48;5.82;;;2.92;;
72674;SDS011;60752;53.962;9.614;2022-09-09T22:35:48;7.07;;;3.37;;
72674;SDS011;60752;53.962;9.614;2022-09-09T22:40:50;7.67;;;3.20;;
72674;SDS011;60752;53.962;9.614;2022-09-09T22:45:50;6.35;;;3.40;;
72674;SDS011;60752;53.962;9.614;2022-09-09T22:50:51;6.40;;;3.57;;
72674;SDS011;60752;53.962;9.614;2022-09-09T22:55:56;6.07;;;3.10;;
72674;SDS011;60752;53.962;9.614;2022-09-09T23:00:58;5.27;;;3.00;;
72674;SDS011;60752;53.962;9.614;2022-09-09T23:05:59;6.13;;;3.38;;
72674;SDS011;60752;53.962;9.614;2022-09-09T23:11:05;6.18;;;2.97;;
72674;SDS011;60752;53.962;9.614;2022-09-09T23:16:08;6.60;;;2.83;;
72674;SDS011;60752;53.962;9.614;2022-09-09T23:21:11;6.60;;;3.17;;
72674;SDS011;60752;53.962;9.614;2022-09-09T23:26:13;9.05;;;3.50;;
72674;SDS011;60752;53.962;9.614;2022-09-09T23:31:15;6.82;;;3.33;;
72674;SDS011;60752;53.962;9.614;2022-09-09T23:36:18;6.93;;;2.90;;
72674;SDS011;60752;53.962;9.614;2022-09-09T23:41:21;8.48;;;3.38;;
72674;SDS011;60752;53.962;9.614;2022-09-09T23:46:22;7.68;;;3.03;;
72674;SDS011;60752;53.962;9.614;2022-09-09T23:51:25;6.70;;;3.10;;
72674;SDS011;60752;53.962;9.614;2022-09-09T23:56:28;6.45;;;3.30;;
